Time;durP1;ratioP1;P1;durP2;ratioP2;P2;SDS_P1;SDS_P2;PMS_P1;PMS_P2;Temp;Humidity;BMP_temperature;BMP_pressure;BME280_temperature;BME280_humidity;BME280_pressure;Samples;Min_cycle;Max_cycle;Signal;HPM_P1;HPM_P2
2023/09/26 00:00:19;;;;;;;12.77;5.15;;;;;;;10.50;69.62;101617.22;4817973;29;20039;-70
2023/09/26 00:02:46;;;;;;;10.07;5.03;;;;;;;10.50;69.41;101625.03;4800447;29;20061;-69
2023/09/26 00:05:13;;;;;;;8.68;4.60;;;;;;;10.43;69.34;101634.44;4801479;29;20084;-70
2023/09/26 00:07:39;;;;;;;11.32;5.38;;;;;;;10.40;68.82;101632.66;4817236;29;20186;-70
2023/09/26 00:10:07;;;;;;;9.00;4.72;;;;;;;10.35;68.99;101631.66;4814503;29;20074;-70
2023/09/26 00:12:34;;;;;;;10.32;5.43;;;;;;;10.34;69.31;101634.22;4816716;29;20170;-70
2023/09/26 00:15:00;;;;;;;8.32;5.10;;;;;;;10.34;69.34;101632.50;4815696;29;20046;-70
2023/09/26 00:17:27;;;;;;;14.27;5.28;;;;;;;10.42;69.44;101634.41;4819527;29;20035;-72
2023/09/26 00:19:53;;;;;;;9.65;5.55;;;;;;;10.32;69.30;101641.09;4816974;29;20042;-69
2023/09/26 00:22:20;;;;;;;8.65;5.22;;;;;;;10.34;69.25;101655.94;4798810;29;20053;-71
2023/09/26 00:24:46;;;;;;;11.13;5.50;;;;;;;10.23;69.29;101631.38;4817797;29;20486;-71
2023/09/26 00:27:13;;;;;;;9.82;5.53;;;;;;;10.24;69.31;101647.03;4818647;29;20042;-72
2023/09/26 00:29:40;;;;;;;15.23;5.53;;;;;;;10.08;68.99;101635.41;4805322;29;20050;-70
2023/09/26 00:32:06;;;;;;;13.02;5.63;;;;;;;10.12;69.02;101656.28;4803908;29;20502;-70
2023/09/26 00:34:33;;;;;;;9.48;5.22;;;;;;;9.95;68.97;101626.44;4805714;29;20058;-70
2023/09/26 00:36:59;;;;;;;8.93;5.40;;;;;;;9.85;69.13;101614.06;4820190;29;20152;-70
2023/09/26 00:39:25;;;;;;;10.70;5.15;;;;;;;10.13;69.49;101650.25;4819743;29;20137;-70
2023/09/26 00:41:51;;;;;;;12.15;5.22;;;;;;;10.16;69.36;101655.50;4818624;29;20047;-71
2023/09/26 00:44:17;;;;;;;10.73;6.07;;;;;;;10.16;69.20;101655.50;4817185;29;20050;-71
2023/09/26 00:46:44;;;;;;;11.77;5.95;;;;;;;10.10;69.14;101656.25;4817687;29;20065;-71
2023/09/26 00:49:11;;;;;;;12.35;5.90;;;;;;;9.93;69.24;101642.88;4790919;29;20662;-70
2023/09/26 00:51:38;;;;;;;13.30;5.93;;;;;;;10.08;69.79;101663.13;4801562;29;20145;-70
2023/09/26 00:54:06;;;;;;;12.48;5.43;;;;;;;9.88;69.35;101632.34;4821576;29;20047;-70
2023/09/26 00:56:32;;;;;;;11.82;6.07;;;;;;;9.85;69.75;101639.19;4818450;29;20050;-71
2023/09/26 00:59:00;;;;;;;12.57;6.43;;;;;;;10.00;69.79;101656.88;4819552;29;20501;-68
2023/09/26 01:01:30;;;;;;;11.02;5.80;;;;;;;9.93;69.54;101655.88;4815626;29;20141;-70
2023/09/26 01:03:57;;;;;;;10.63;6.75;;;;;;;9.87;69.73;101648.78;4817599;29;20167;-69
2023/09/26 01:06:23;;;;;;;13.88;8.00;;;;;;;9.91;69.55;101650.63;4803776;29;20077;-70
2023/09/26 01:08:49;;;;;;;12.23;5.68;;;;;;;9.39;69.12;101574.88;4819146;29;20046;-69
2023/09/26 01:11:16;;;;;;;19.10;6.53;;;;;;;9.86;69.71;101657.44;4806289;29;20060;-71
2023/09/26 01:13:42;;;;;;;13.25;8.80;;;;;;;9.78;69.35;101653.78;4819018;29;20046;-69
2023/09/26 01:16:16;;;;;;;14.77;9.13;;;;;;;9.83;69.88;101667.75;4818109;29;20053;-69
2023/09/26 01:18:43;;;;;;;18.50;10.40;;;;;;;9.86;69.97;101666.97;4805915;29;20088;-69
2023/09/26 01:21:09;;;;;;;13.80;8.48;;;;;;;9.89;69.89;101664.44;4816972;29;20058;-69
2023/09/26 01:23:42;;;;;;;13.25;7.90;;;;;;;9.79;69.74;101655.53;4803983;29;20513;-69
2023/09/26 01:26:08;;;;;;;15.35;9.75;;;;;;;9.87;69.64;101676.53;4820739;29;20073;-70
2023/09/26 01:28:36;;;;;;;11.77;5.90;;;;;;;9.77;69.70;101659.81;4816522;29;21575;-70
2023/09/26 01:31:02;;;;;;;13.38;7.40;;;;;;;9.71;69.85;101672.66;4818998;29;20054;-70
2023/09/26 01:33:28;;;;;;;11.45;6.97;;;;;;;9.48;70.24;101639.19;4815641;29;20050;-70
2023/09/26 01:35:54;;;;;;;22.75;6.75;;;;;;;9.59;70.05;101668.94;4820031;29;20054;-72
2023/09/26 01:38:23;;;;;;;13.13;6.70;;;;;;;9.49;69.76;101665.19;4804271;29;20592;-70
2023/09/26 01:40:49;;;;;;;18.27;9.45;;;;;;;9.49;69.92;101660.00;4816976;29;20540;-70
2023/09/26 01:43:15;;;;;;;20.77;12.10;;;;;;;9.46;69.93;101659.06;4821276;29;20069;-71
2023/09/26 01:45:41;;;;;;;21.23;12.52;;;;;;;9.57;69.68;101677.50;4833434;29;20106;-71
2023/09/26 01:48:09;;;;;;;26.40;15.68;;;;;;;9.52;69.57;101672.22;4816245;29;20052;-70
2023/09/26 01:50:35;;;;;;;28.02;18.27;;;;;;;9.48;69.42;101679.06;4804484;29;20089;-69
2023/09/26 01:53:04;;;;;;;17.52;8.15;;;;;;;9.45;70.03;101680.69;4818261;29;20061;-71
2023/09/26 01:55:30;;;;;;;19.70;9.35;;;;;;;9.39;69.77;101677.91;4820001;29;20521;-70
2023/09/26 01:57:56;;;;;;;19.65;8.63;;;;;;;9.39;69.85;101685.72;4820270;29;20042;-72
2023/09/26 02:00:22;;;;;;;25.63;12.90;;;;;;;9.22;69.68;101646.31;4815304;29;20050;-70
2023/09/26 02:02:51;;;;;;;30.55;17.92;;;;;;;9.31;70.25;101654.34;4816715;29;20170;-71
2023/09/26 02:05:19;;;;;;;28.90;19.48;;;;;;;9.47;70.08;101679.00;4800161;29;20054;-70
2023/09/26 02:07:46;;;;;;;28.50;17.30;;;;;;;9.52;70.34;101671.31;4817679;29;20042;-70
2023/09/26 02:10:17;;;;;;;20.70;11.50;;;;;;;9.48;70.14;101667.78;4805269;29;20058;-70
2023/09/26 02:12:51;;;;;;;26.85;16.35;;;;;;;9.39;69.74;101672.72;4818109;29;20074;-69
2023/09/26 02:15:22;;;;;;;30.52;17.63;;;;;;;9.31;70.35;101664.72;4816832;29;20042;-70
2023/09/26 02:17:48;;;;;;;20.65;11.32;;;;;;;9.29;70.77;101664.69;4818666;29;20117;-70
2023/09/26 02:20:16;;;;;;;24.08;16.27;;;;;;;9.36;70.71;101670.06;4831940;29;20047;-69
2023/09/26 02:22:48;;;;;;;22.23;11.25;;;;;;;9.36;70.58;101664.88;4817584;29;20516;-71
2023/09/26 02:25:15;;;;;;;27.75;17.58;;;;;;;9.34;70.37;101672.59;4816454;29;20133;-71
2023/09/26 02:27:43;;;;;;;23.27;12.80;;;;;;;9.18;70.07;101653.13;4816779;29;20183;-70
2023/09/26 02:30:11;;;;;;;21.55;11.27;;;;;;;9.29;70.39;101671.59;4818030;29;20086;-70
2023/09/26 02:32:37;;;;;;;20.35;10.27;;;;;;;9.11;70.00;101656.44;4816214;29;20049;-69
2023/09/26 02:35:06;;;;;;;22.30;11.40;;;;;;;9.14;70.14;101678.16;4818511;29;20174;-71
2023/09/26 02:37:32;;;;;;;25.73;11.13;;;;;;;9.14;70.64;101669.50;4819992;29;20534;-70
2023/09/26 02:39:58;;;;;;;17.90;9.85;;;;;;;9.05;70.23;101664.91;4814552;29;20092;-71
2023/09/26 02:42:24;;;;;;;17.20;10.82;;;;;;;9.10;70.46;101678.91;4800114;29;20046;-71
2023/09/26 02:44:50;;;;;;;20.33;10.40;;;;;;;8.89;70.08;101655.84;4815268;29;20106;-71
2023/09/26 02:47:16;;;;;;;16.75;9.85;;;;;;;9.01;70.50;101682.13;4820048;29;20046;-69
2023/09/26 02:49:42;;;;;;;17.33;9.70;;;;;;;8.76;70.18;101632.94;4815657;29;20051;-71
2023/09/26 02:52:08;;;;;;;15.15;9.27;;;;;;;8.98;69.98;101678.59;4817642;29;20129;-71
2023/09/26 02:54:34;;;;;;;17.67;8.95;;;;;;;9.03;70.23;101689.97;4818416;29;20137;-70
2023/09/26 02:57:00;;;;;;;21.80;9.70;;;;;;;8.42;70.04;101578.34;4803720;29;20042;-71
2023/09/26 02:59:26;;;;;;;16.30;9.30;;;;;;;8.93;70.18;101673.28;4817840;29;20075;-70
2023/09/26 03:01:52;;;;;;;15.43;8.73;;;;;;;8.76;70.07;101662.41;4814697;29;20187;-69
2023/09/26 03:04:18;;;;;;;23.50;10.48;;;;;;;8.79;69.84;101670.28;4818253;29;20132;-70
2023/09/26 03:06:44;;;;;;;21.30;10.52;;;;;;;8.86;70.13;101682.56;4817087;29;20050;-70
2023/09/26 03:09:11;;;;;;;17.00;8.98;;;;;;;8.77;70.31;101676.25;4800887;29;20046;-71
2023/09/26 03:11:37;;;;;;;19.25;9.93;;;;;;;8.83;70.02;101690.28;4788611;29;20057;-72
2023/09/26 03:14:03;;;;;;;18.20;9.00;;;;;;;8.86;70.04;101699.88;4800951;29;20042;-70
2023/09/26 03:16:29;;;;;;;22.73;9.52;;;;;;;8.80;69.89;101686.72;4817690;29;20106;-70
2023/09/26 03:18:56;;;;;;;14.65;9.38;;;;;;;8.75;69.84;101689.19;4804919;29;20405;-71
2023/09/26 03:21:22;;;;;;;21.42;9.05;;;;;;;8.76;69.84;101696.16;4830000;29;20045;-71
2023/09/26 03:23:49;;;;;;;20.00;9.63;;;;;;;8.69;69.59;101683.81;4800699;29;20494;-70
2023/09/26 03:26:15;;;;;;;20.30;9.18;;;;;;;8.87;69.84;101714.63;4804858;29;20042;-71
2023/09/26 03:28:42;;;;;;;18.52;8.88;;;;;;;8.92;69.95;101714.75;4816934;29;20046;-70
2023/09/26 03:31:11;;;;;;;21.17;9.20;;;;;;;8.90;69.62;101717.31;4816625;29;20038;-70
2023/09/26 03:33:38;;;;;;;14.30;8.77;;;;;;;8.80;69.59;101694.50;4811522;29;20043;-70
2023/09/26 03:36:04;;;;;;;18.02;9.27;;;;;;;8.99;69.87;101727.09;4817613;29;20061;-70
2023/09/26 03:38:31;;;;;;;15.85;9.35;;;;;;;8.85;69.31;101687.75;4817139;29;20527;-70
2023/09/26 03:41:00;;;;;;;17.98;9.15;;;;;;;8.74;69.24;101664.94;4814635;29;20054;-69
2023/09/26 03:43:26;;;;;;;20.50;10.45;;;;;;;9.07;69.29;101709.13;4815003;29;20129;-71
2023/09/26 03:46:07;;;;;;;18.58;9.95;;;;;;;9.14;69.53;101714.53;4802529;29;20058;-71
2023/09/26 03:48:34;;;;;;;18.23;10.10;;;;;;;9.27;69.05;101710.53;4816322;29;20060;-72
2023/09/26 03:51:12;;;;;;;26.33;15.50;;;;;;;9.33;68.95;101712.41;4815312;29;20125;-71
2023/09/26 03:53:39;;;;;;;29.98;16.20;;;;;;;9.44;69.24;101695.41;4815073;29;20052;-71
2023/09/26 03:56:05;;;;;;;25.52;14.23;;;;;;;9.67;69.12;101707.22;4815658;29;20470;-70
2023/09/26 03:58:32;;;;;;;21.73;11.43;;;;;;;9.86;68.78;101714.63;4800128;29;20042;-70
2023/09/26 04:01:12;;;;;;;16.55;9.55;;;;;;;10.05;68.50;101715.06;4797286;29;20050;-69
2023/09/26 04:03:39;;;;;;;15.85;9.02;;;;;;;10.27;68.45;101718.19;4803410;29;20093;-70
2023/09/26 04:06:06;;;;;;;16.33;8.90;;;;;;;10.42;68.44;101705.56;4817464;29;20191;-71
2023/09/26 04:08:32;;;;;;;13.90;9.13;;;;;;;10.69;68.26;101714.81;4815497;29;20053;-75
2023/09/26 04:10:58;;;;;;;16.42;9.77;;;;;;;10.92;67.78;101719.63;4819591;29;20039;-75
2023/09/26 04:13:24;;;;;;;14.25;8.50;;;;;;;11.09;67.63;101706.91;4817383;29;20545;-76
2023/09/26 04:15:52;;;;;;;16.63;8.98;;;;;;;11.38;67.28;101702.25;4794568;29;20066;-79
2023/09/26 04:18:19;;;;;;;17.42;8.57;;;;;;;11.89;67.10;101705.75;4821515;29;20043;-75
2023/09/26 04:20:45;;;;;;;17.90;9.15;;;;;;;12.38;66.50;101712.56;4820309;29;20106;-77
2023/09/26 04:23:11;;;;;;;14.73;9.43;;;;;;;12.72;65.78;101718.25;4818647;29;20042;-75
2023/09/26 04:25:37;;;;;;;16.90;8.52;;;;;;;13.00;65.37;101704.66;4825846;29;20079;-75
2023/09/26 04:28:03;;;;;;;16.05;8.85;;;;;;;13.34;64.31;101705.03;4822941;29;20042;-74
2023/09/26 04:30:30;;;;;;;13.23;8.25;;;;;;;13.61;63.89;101709.66;4820446;29;20053;-76
2023/09/26 04:32:56;;;;;;;16.40;9.30;;;;;;;13.72;63.76;101688.81;4820724;29;20399;-74
2023/09/26 04:35:22;;;;;;;13.70;8.30;;;;;;;14.15;62.92;101698.72;4814614;29;20127;-76
2023/09/26 04:37:48;;;;;;;16.10;9.05;;;;;;;14.77;62.96;101644.06;4816102;29;20388;-77
2023/09/26 04:40:14;;;;;;;15.57;10.00;;;;;;;16.05;61.57;101650.25;4818256;29;20452;-77
2023/09/26 04:42:43;;;;;;;16.00;9.70;;;;;;;17.59;60.07;101695.06;4818357;29;20054;-74
2023/09/26 04:45:09;;;;;;;14.75;9.32;;;;;;;18.61;58.04;101694.09;4817452;29;20047;-76
2023/09/26 04:47:35;;;;;;;15.63;9.32;;;;;;;19.50;55.99;101696.38;4817718;29;20076;-74
2023/09/26 04:50:03;;;;;;;16.38;9.10;;;;;;;20.33;53.86;101682.63;4787169;29;20104;-75
2023/09/26 04:52:31;;;;;;;11.80;8.48;;;;;;;21.33;52.25;101684.84;4816925;29;20082;-78
2023/09/26 04:54:58;;;;;;;14.52;8.75;;;;;;;22.16;50.29;101673.06;4816609;29;20070;-78
2023/09/26 04:57:24;;;;;;;13.57;9.32;;;;;;;22.98;47.29;101683.94;4832416;29;20102;-76
2023/09/26 04:59:50;;;;;;;19.38;8.68;;;;;;;23.77;45.95;101680.56;4819234;29;20050;-76
2023/09/26 05:02:16;;;;;;;12.32;9.10;;;;;;;24.40;44.03;101684.53;4802271;29;20490;-75
2023/09/26 05:04:45;;;;;;;15.55;10.73;;;;;;;24.79;42.36;101666.22;4801444;29;20081;-81
2023/09/26 05:07:11;;;;;;;13.20;10.13;;;;;;;25.17;40.96;101652.31;4805435;29;20202;-82
2023/09/26 05:09:40;;;;;;;13.90;10.88;;;;;;;25.73;39.70;101689.97;4818895;29;20073;-88
2023/09/26 05:12:06;;;;;;;14.60;10.30;;;;;;;25.66;39.18;101669.84;4824548;29;20057;-82
2023/09/26 05:14:32;;;;;;;14.70;10.57;;;;;;;25.49;38.54;101642.09;4812678;29;20067;-82
2023/09/26 05:16:58;;;;;;;13.65;9.82;;;;;;;25.71;38.01;101689.16;4825826;29;20106;-83
2023/09/26 05:19:24;;;;;;;14.27;9.68;;;;;;;25.77;37.54;101699.56;4827640;29;20050;-82
2023/09/26 05:21:51;;;;;;;12.90;9.63;;;;;;;26.24;37.04;101693.13;4820560;29;20042;-84
2023/09/26 05:24:17;;;;;;;14.43;11.30;;;;;;;26.98;36.06;101699.50;4810608;29;20042;-81
2023/09/26 05:26:44;;;;;;;14.23;11.40;;;;;;;27.65;34.75;101678.41;4819828;29;20050;-83
2023/09/26 05:29:10;;;;;;;16.42;10.98;;;;;;;28.29;33.43;101663.53;4824356;29;20047;-78
2023/09/26 05:31:37;;;;;;;15.32;11.07;;;;;;;29.02;32.91;101671.09;4823018;29;20046;-78
2023/09/26 05:34:03;;;;;;;15.65;10.48;;;;;;;29.69;31.72;101688.69;4821616;29;20526;-77
2023/09/26 05:36:31;;;;;;;15.98;10.40;;;;;;;29.94;31.07;101652.31;4820332;29;20181;-74
2023/09/26 05:38:57;;;;;;;11.90;9.45;;;;;;;30.54;30.33;101694.22;4818698;29;20548;-75
2023/09/26 05:41:23;;;;;;;11.95;9.75;;;;;;;30.78;29.48;101688.28;4818129;29;20317;-78
2023/09/26 05:43:50;;;;;;;15.35;8.73;;;;;;;30.93;29.15;101692.63;4791556;29;20054;-76
2023/09/26 05:46:16;;;;;;;11.13;8.48;;;;;;;31.38;29.02;101691.53;4803886;29;20211;-75
2023/09/26 05:48:45;;;;;;;10.52;8.77;;;;;;;31.74;28.31;101687.28;4805299;29;20149;-77
2023/09/26 05:51:10;;;;;;;11.25;7.38;;;;;;;32.36;27.11;101677.59;4815206;29;20133;-78
2023/09/26 05:53:36;;;;;;;12.90;6.75;;;;;;;32.98;26.34;101688.44;4819003;29;20115;-75
2023/09/26 05:56:03;;;;;;;10.73;6.38;;;;;;;33.63;25.90;101679.03;4816274;29;20061;-78
2023/09/26 05:58:29;;;;;;;9.77;6.80;;;;;;;34.58;25.11;101693.22;4806160;29;20050;-76
2023/09/26 06:00:56;;;;;;;12.48;5.95;;;;;;;35.39;23.71;101691.97;4815416;29;20057;-76
2023/09/26 06:03:23;;;;;;;11.30;6.80;;;;;;;36.00;23.08;101684.97;4818279;29;20054;-76
2023/09/26 06:05:50;;;;;;;9.27;6.57;;;;;;;36.48;22.18;101675.34;4833165;29;20154;-77
2023/09/26 06:08:16;;;;;;;7.93;6.18;;;;;;;36.95;21.22;101676.59;4817487;29;20130;-76
2023/09/26 06:10:42;;;;;;;8.68;5.85;;;;;;;37.10;21.12;101630.88;4817830;29;20074;-76
2023/09/26 06:13:08;;;;;;;7.63;6.28;;;;;;;37.92;20.63;101688.34;4815464;29;20064;-79
2023/09/26 06:15:34;;;;;;;7.68;6.65;;;;;;;37.96;20.24;101662.59;4817920;29;20433;-79
2023/09/26 06:18:00;;;;;;;16.13;6.18;;;;;;;38.40;19.70;101670.97;4817017;29;20114;-77
2023/09/26 06:20:27;;;;;;;9.02;6.13;;;;;;;39.20;19.14;101684.88;4819017;29;20118;-77
2023/09/26 06:22:57;;;;;;;11.43;5.93;;;;;;;39.95;18.38;101686.25;4835232;29;20533;-74
2023/09/26 06:25:23;;;;;;;12.25;7.05;;;;;;;40.54;18.12;101677.28;4824070;29;20556;-76
2023/09/26 06:27:51;;;;;;;11.15;6.22;;;;;;;41.19;17.25;101692.06;4820443;29;20074;-76
2023/09/26 06:30:18;;;;;;;8.75;6.63;;;;;;;41.75;16.98;101677.69;4837473;29;20150;-76
2023/09/26 06:32:45;;;;;;;13.85;6.80;;;;;;;42.17;16.54;101668.31;4806104;29;20049;-77
2023/09/26 06:35:11;;;;;;;9.48;6.85;;;;;;;42.74;16.01;101675.34;4800942;29;20153;-76
2023/09/26 06:37:37;;;;;;;11.10;6.53;;;;;;;43.20;15.08;101666.25;4819944;29;20050;-76
2023/09/26 06:40:06;;;;;;;11.05;6.45;;;;;;;43.75;14.79;101689.88;4818421;29;20080;-80
2023/09/26 06:42:34;;;;;;;9.00;6.15;;;;;;;43.97;14.33;101679.88;4800555;29;20050;-75
2023/09/26 06:45:00;;;;;;;6.80;6.13;;;;;;;44.08;14.29;101667.59;4817141;29;20059;-76
2023/09/26 06:47:29;;;;;;;8.02;5.90;;;;;;;44.59;13.77;101683.16;4815499;29;20107;-75
2023/09/26 06:49:56;;;;;;;8.15;6.38;;;;;;;45.13;13.55;101689.19;4820361;29;20137;-76
2023/09/26 06:52:22;;;;;;;11.73;6.90;;;;;;;44.99;12.97;101669.00;4814419;29;20138;-76
2023/09/26 06:54:50;;;;;;;12.43;7.70;;;;;;;45.40;12.62;101681.16;4819607;29;20046;-74
2023/09/26 06:57:20;;;;;;;10.10;7.32;;;;;;;45.46;12.34;101674.88;4789973;29;20053;-76
2023/09/26 06:59:49;;;;;;;;;;;;;;;45.72;12.66;101668.69;4818028;29;20126;-73
2023/09/26 07:02:16;;;;;;;13.27;10.90;;;;;;;46.02;12.61;101670.31;4817021;29;19952;-73
2023/09/26 07:04:42;;;;;;;13.88;10.80;;;;;;;46.51;12.11;101638.13;4814945;29;20065;-72
2023/09/26 07:07:08;;;;;;;22.95;11.32;;;;;;;46.73;12.11;101657.22;4816954;29;20038;-72
2023/09/26 07:09:34;;;;;;;15.05;10.13;;;;;;;46.86;11.27;101654.47;4815032;29;20422;-76
2023/09/26 07:12:02;;;;;;;10.30;7.63;;;;;;;46.95;11.33;101655.09;4817201;29;20046;-76
2023/09/26 07:14:35;;;;;;;12.00;6.85;;;;;;;47.44;11.22;101657.59;4814702;29;20042;-73
2023/09/26 07:17:02;;;;;;;10.20;6.80;;;;;;;47.82;10.86;101651.34;4818880;29;20042;-72
2023/09/26 07:19:32;;;;;;;8.27;6.28;;;;;;;48.23;10.60;101669.41;4800030;29;20050;-75
2023/09/26 07:21:59;;;;;;;6.22;4.85;;;;;;;47.92;10.59;101659.16;4829325;29;20074;-77
2023/09/26 07:24:26;;;;;;;9.18;5.40;;;;;;;48.14;10.39;101659.72;4814456;29;20050;-75
2023/09/26 07:26:52;;;;;;;5.93;3.83;;;;;;;48.29;10.12;101664.94;4818053;29;20034;-76
2023/09/26 07:29:18;;;;;;;5.28;3.78;;;;;;;48.59;9.66;101650.53;4816017;29;20155;-75
2023/09/26 07:31:45;;;;;;;7.13;5.30;;;;;;;48.85;9.78;101645.88;4818276;29;20038;-73
2023/09/26 07:34:11;;;;;;;7.63;4.78;;;;;;;48.96;9.48;101644.28;4813782;29;20058;-76
2023/09/26 07:36:37;;;;;;;7.47;4.53;;;;;;;49.40;9.37;101647.91;4818643;29;20061;-76
2023/09/26 07:39:04;;;;;;;7.82;5.07;;;;;;;49.53;9.14;101646.94;4817932;29;20046;-74
2023/09/26 07:41:30;;;;;;;8.30;5.53;;;;;;;49.52;9.03;101622.31;4815371;29;20053;-78
2023/09/26 07:43:58;;;;;;;4.68;4.18;;;;;;;49.44;9.05;101645.53;4819434;29;20053;-74
2023/09/26 07:46:25;;;;;;;4.78;4.30;;;;;;;49.10;9.38;101631.25;4815170;29;20046;-75
2023/09/26 07:48:52;;;;;;;4.72;3.80;;;;;;;49.02;8.97;101651.69;4800965;29;20070;-74
2023/09/26 07:51:19;;;;;;;4.18;3.78;;;;;;;47.99;9.51;101639.88;4816111;29;20050;-76
2023/09/26 07:53:45;;;;;;;4.05;3.58;;;;;;;48.33;9.38;101649.69;4817438;29;20117;-76
2023/09/26 07:56:11;;;;;;;8.30;3.67;;;;;;;49.15;9.03;101637.75;4800816;29;20146;-76
2023/09/26 07:58:37;;;;;;;4.15;3.78;;;;;;;49.52;9.17;101636.97;4815194;29;20046;-75
2023/09/26 08:01:07;;;;;;;7.05;4.30;;;;;;;49.84;8.55;101635.94;4815176;29;20047;-74
2023/09/26 08:03:35;;;;;;;7.72;4.25;;;;;;;50.10;8.49;101650.47;4804150;29;20052;-72
2023/09/26 08:06:02;;;;;;;5.93;4.15;;;;;;;50.44;8.40;101637.84;4813557;29;20072;-78
2023/09/26 08:08:29;;;;;;;5.20;4.50;;;;;;;50.72;8.12;101616.97;4818694;29;20198;-79
2023/09/26 08:10:56;;;;;;;5.25;4.68;;;;;;;50.63;8.08;101641.41;4818119;29;20502;-78
2023/09/26 08:13:23;;;;;;;5.90;4.20;;;;;;;49.76;8.33;101650.06;4818581;29;20187;-78
2023/09/26 08:15:49;;;;;;;4.13;3.08;;;;;;;49.51;8.77;101628.91;4817500;29;20043;-80
2023/09/26 08:18:15;;;;;;;5.60;3.83;;;;;;;49.02;8.35;101646.16;4833530;29;20046;-80
2023/09/26 08:20:41;;;;;;;4.32;3.50;;;;;;;48.07;9.00;101636.84;4818329;29;20046;-78
2023/09/26 08:23:07;;;;;;;5.35;3.63;;;;;;;47.34;9.54;101625.84;4815773;29;20150;-78
2023/09/26 08:25:34;;;;;;;5.88;3.92;;;;;;;47.11;9.63;101626.28;4817333;29;20138;-77
2023/09/26 08:28:01;;;;;;;6.65;5.45;;;;;;;45.92;9.86;101607.47;4813494;29;20042;-74
2023/09/26 08:30:28;;;;;;;6.32;5.25;;;;;;;46.44;10.45;101627.13;4798445;29;20084;-74
2023/09/26 08:32:54;;;;;;;6.18;5.00;;;;;;;46.59;10.07;101607.66;4812631;29;20047;-74
2023/09/26 08:35:20;;;;;;;6.07;4.82;;;;;;;46.88;10.24;101621.25;4813370;29;20082;-73
2023/09/26 08:37:46;;;;;;;5.32;4.55;;;;;;;47.03;9.78;101619.09;4783747;29;20056;-72
2023/09/26 08:40:12;;;;;;;4.82;4.20;;;;;;;46.50;10.04;101588.81;4815960;29;20042;-74
2023/09/26 08:42:41;;;;;;;5.68;4.43;;;;;;;46.26;10.56;101610.34;4813598;29;20475;-78
2023/09/26 08:45:07;;;;;;;4.20;3.58;;;;;;;46.21;10.54;101579.88;4797804;29;20039;-76
2023/09/26 08:47:38;;;;;;;4.25;3.30;;;;;;;46.82;10.18;101611.91;4817370;29;20133;-78
2023/09/26 08:50:05;;;;;;;9.13;3.70;;;;;;;47.12;9.78;101594.09;4816294;29;20636;-77
2023/09/26 08:52:33;;;;;;;3.33;2.88;;;;;;;47.18;9.79;101609.75;4814893;29;20050;-78
2023/09/26 08:54:59;;;;;;;3.83;2.60;;;;;;;46.57;10.15;101595.16;4820379;29;20077;-76
2023/09/26 08:57:26;;;;;;;3.00;2.65;;;;;;;46.51;10.00;101590.50;4819168;29;20054;-78
2023/09/26 08:59:55;;;;;;;5.22;3.58;;;;;;;46.57;10.38;101604.25;4819015;29;20060;-76
2023/09/26 09:02:21;;;;;;;3.42;3.13;;;;;;;46.28;10.29;101594.47;4830571;29;20497;-77
2023/09/26 09:04:47;;;;;;;3.38;2.80;;;;;;;45.57;10.13;101580.03;4818723;29;20060;-77
2023/09/26 09:07:13;;;;;;;5.10;3.03;;;;;;;44.62;10.84;101584.03;4824211;29;20056;-82
2023/09/26 09:10:07;;;;;;;5.40;3.13;;;;;;;43.96;10.86;101590.47;4825221;29;20052;-80
2023/09/26 09:12:37;;;;;;;3.72;3.10;;;;;;;43.62;11.34;101594.63;4820833;29;20046;-79
2023/09/26 09:15:16;;;;;;;6.55;3.17;;;;;;;44.43;11.29;101592.88;4824102;29;20095;-79
2023/09/26 09:17:43;;;;;;;3.75;2.75;;;;;;;44.36;11.24;101581.84;4805263;29;20051;-78
2023/09/26 09:20:10;;;;;;;5.32;2.65;;;;;;;43.83;10.82;101593.03;4824068;29;20049;-80
2023/09/26 09:22:36;;;;;;;3.45;2.53;;;;;;;42.89;11.46;101582.41;4837632;29;20118;-77
2023/09/26 09:25:04;;;;;;;7.30;2.58;;;;;;;42.94;11.49;101592.78;4821217;29;20046;-78
2023/09/26 09:27:34;;;;;;;2.85;2.55;;;;;;;43.25;11.37;101593.72;4820430;29;20039;-78
2023/09/26 09:30:08;;;;;;;3.38;2.70;;;;;;;43.21;11.78;101595.94;4820495;29;20593;-80
2023/09/26 09:32:35;;;;;;;2.78;2.58;;;;;;;43.39;11.86;101581.91;4821204;29;20053;-79
2023/09/26 09:35:04;;;;;;;6.05;2.60;;;;;;;44.38;11.06;101591.56;4805035;29;20134;-79
2023/09/26 09:37:30;;;;;;;7.55;2.60;;;;;;;44.82;10.55;101584.16;4825311;29;20145;-75
2023/09/26 09:39:57;;;;;;;3.85;2.70;;;;;;;44.71;10.44;101572.88;4822915;29;20065;-78
2023/09/26 09:42:24;;;;;;;2.08;1.88;;;;;;;44.47;10.40;101572.28;4821082;29;20563;-79
2023/09/26 09:44:50;;;;;;;2.75;2.10;;;;;;;42.93;10.90;101582.00;4819847;29;20046;-77
2023/09/26 09:47:24;;;;;;;3.72;2.65;;;;;;;42.85;10.93;101570.13;4818543;29;20043;-78
2023/09/26 09:49:51;;;;;;;4.00;2.95;;;;;;;42.86;11.08;101549.94;4818302;29;20410;-79
2023/09/26 09:52:19;;;;;;;3.53;2.75;;;;;;;43.77;11.18;101580.94;4817407;29;20046;-77
2023/09/26 09:54:47;;;;;;;4.05;2.22;;;;;;;44.25;10.77;101580.47;4819723;29;20180;-79
2023/09/26 09:57:17;;;;;;;4.78;2.30;;;;;;;44.45;10.76;101582.59;4818741;29;20477;-76
2023/09/26 09:59:47;;;;;;;3.10;2.35;;;;;;;44.11;10.74;101574.00;4802685;29;20054;-79
2023/09/26 10:02:16;;;;;;;3.30;2.28;;;;;;;42.09;11.28;101564.50;4816395;29;20043;-78
2023/09/26 10:04:55;;;;;;;2.97;1.70;;;;;;;40.23;12.33;101574.34;4818241;29;20053;-79
2023/09/26 10:07:24;;;;;;;2.45;1.90;;;;;;;38.19;13.24;101553.53;4818436;29;20047;-78
2023/09/26 10:09:52;;;;;;;3.47;1.90;;;;;;;36.72;14.08;101571.09;4818663;29;20072;-79
2023/09/26 10:12:18;;;;;;;3.42;2.17;;;;;;;35.32;15.12;101545.56;4832866;29;20050;-79
2023/09/26 10:14:45;;;;;;;4.30;2.13;;;;;;;34.49;15.93;101565.16;4815966;29;20049;-77
2023/09/26 10:17:12;;;;;;;3.33;2.45;;;;;;;33.51;16.92;101544.25;4818557;29;20430;-77
2023/09/26 10:19:39;;;;;;;3.25;2.00;;;;;;;32.67;17.49;101551.44;4821746;29;20703;-76
2023/09/26 10:22:19;;;;;;;3.17;1.85;;;;;;;31.89;18.40;101561.59;4821958;29;20038;-78
2023/09/26 10:24:50;;;;;;;7.15;2.40;;;;;;;30.91;19.06;101541.41;4818550;29;20435;-75
2023/09/26 10:27:36;;;;;;;4.10;2.33;;;;;;;30.14;20.21;101541.06;4807576;29;20042;-76
2023/09/26 10:30:02;;;;;;;4.65;2.20;;;;;;;29.33;20.23;101524.56;4806332;29;20050;-78
2023/09/26 10:32:33;;;;;;;3.75;2.10;;;;;;;29.03;21.09;101548.72;4820327;29;20057;-78
2023/09/26 10:35:22;;;;;;;4.47;2.35;;;;;;;28.60;21.74;101544.03;4818830;29;20525;-78
2023/09/26 10:37:52;;;;;;;3.50;2.25;;;;;;;28.13;21.98;101544.00;4821466;29;20067;-79
2023/09/26 10:40:18;;;;;;;4.63;2.70;;;;;;;27.95;22.41;101552.03;4834571;29;20046;-76
2023/09/26 10:42:48;;;;;;;3.30;2.30;;;;;;;27.45;22.17;101542.25;4822039;29;20087;-77
2023/09/26 10:45:16;;;;;;;6.05;2.67;;;;;;;27.03;23.31;101537.22;4818103;29;20094;-81
2023/09/26 10:47:43;;;;;;;4.20;2.50;;;;;;;26.46;23.35;101540.88;4806080;29;20105;-77
2023/09/26 10:50:15;;;;;;;3.35;2.10;;;;;;;25.83;24.71;101562.47;4823206;29;20071;-76
2023/09/26 10:52:46;;;;;;;4.13;2.42;;;;;;;25.51;25.05;101559.47;4818220;29;20034;-78
2023/09/26 10:55:15;;;;;;;4.72;2.30;;;;;;;25.13;25.97;101554.81;4817785;29;20050;-79
2023/09/26 10:57:41;;;;;;;5.05;2.25;;;;;;;25.02;25.95;101555.28;4820873;29;20473;-77
2023/09/26 11:00:12;;;;;;;3.35;2.30;;;;;;;24.93;26.25;101553.88;4819101;29;20042;-79
2023/09/26 11:02:41;;;;;;;3.88;2.60;;;;;;;24.94;26.46;101558.25;4822273;29;20034;-76
2023/09/26 11:05:08;;;;;;;3.22;2.33;;;;;;;24.70;26.51;101545.94;4820752;29;20050;-76
2023/09/26 11:07:35;;;;;;;5.05;2.33;;;;;;;24.35;26.98;101517.16;4816157;29;20042;-76
2023/09/26 11:10:03;;;;;;;4.43;2.13;;;;;;;23.68;26.89;101447.91;4823819;29;20042;-75
2023/09/26 11:12:31;;;;;;;4.10;2.40;;;;;;;24.17;27.42;101564.81;4803011;29;20053;-77
2023/09/26 11:15:04;;;;;;;4.53;2.13;;;;;;;23.77;27.79;101518.44;4813564;29;20050;-78
2023/09/26 11:17:37;;;;;;;3.28;2.40;;;;;;;23.80;27.90;101536.94;4822611;29;20038;-76
2023/09/26 11:20:05;;;;;;;3.97;2.25;;;;;;;23.75;28.13;101538.91;4832020;29;20047;-77
2023/09/26 11:22:48;;;;;;;4.32;2.60;;;;;;;23.42;28.50;101509.97;4819117;29;20070;-76